Time;durP1;ratioP1;P1;durP2;ratioP2;P2;SDS_P1;SDS_P2;PMS_P1;PMS_P2;Temp;Humidity;BMP_temperature;BMP_pressure;BME280_temperature;BME280_humidity;BME280_pressure;Samples;Min_cycle;Max_cycle;Signal;HPM_P1;HPM_P2
2023/01/14 00:01:32;;;;;;;11.95;1.75;;;7.20;99.90;;;;;;4922569;28;20434;-82
2023/01/14 00:03:58;;;;;;;15.93;2.63;;;7.20;99.90;;;;;;4937574;28;20039;-82
2023/01/14 00:06:28;;;;;;;24.00;3.08;;;7.10;99.90;;;;;;4932285;28;20418;-82
2023/01/14 00:08:59;;;;;;;13.52;2.72;;;7.10;99.90;;;;;;4915304;28;20435;-82
2023/01/14 00:14:09;;;;;;;13.20;2.95;;;7.20;99.90;;;;;;4941760;28;20086;-82
2023/01/14 00:16:35;;;;;;;17.58;3.45;;;7.30;99.90;;;;;;4924433;28;20035;-82
2023/01/14 00:19:01;;;;;;;18.85;2.58;;;7.30;99.90;;;;;;4924732;28;20030;-82
2023/01/14 00:21:26;;;;;;;17.45;2.13;;;7.20;99.90;;;;;;4921523;28;20158;-82
2023/01/14 00:23:53;;;;;;;12.18;2.42;;;7.20;99.90;;;;;;4932706;28;20438;-82
2023/01/14 00:26:18;;;;;;;24.35;2.80;;;7.20;99.90;;;;;;4933456;28;20038;-83
2023/01/14 00:28:47;;;;;;;15.35;2.58;;;7.20;99.90;;;;;;4919725;28;20047;-82
2023/01/14 00:31:15;;;;;;;14.48;3.05;;;7.20;99.90;;;;;;4927915;28;20065;-82
2023/01/14 00:33:42;;;;;;;7.18;2.22;;;7.20;99.90;;;;;;4932967;28;20095;-82
2023/01/14 00:36:10;;;;;;;17.73;2.97;;;7.20;99.90;;;;;;4918129;28;20110;-82
2023/01/14 00:38:35;;;;;;;15.27;2.65;;;7.20;99.90;;;;;;4918695;28;20031;-82
2023/01/14 00:41:12;;;;;;;20.95;4.57;;;7.30;99.90;;;;;;4919815;28;20046;-82
2023/01/14 00:43:43;;;;;;;19.88;2.67;;;7.20;99.90;;;;;;4938393;28;20134;-82
2023/01/14 00:46:12;;;;;;;13.43;2.17;;;7.20;99.90;;;;;;4921930;28;20089;-82
2023/01/14 00:48:38;;;;;;;8.07;1.52;;;7.10;99.90;;;;;;4921786;28;20047;-82
2023/01/14 00:51:04;;;;;;;12.10;2.20;;;7.10;99.90;;;;;;4919767;28;20038;-82
2023/01/14 00:53:29;;;;;;;22.17;3.72;;;7.20;99.90;;;;;;4916639;28;20106;-82
2023/01/14 00:55:55;;;;;;;13.25;2.55;;;7.10;99.90;;;;;;4914262;28;20027;-82
2023/01/14 00:58:21;;;;;;;16.65;2.38;;;7.20;99.90;;;;;;4920246;28;20554;-82
2023/01/14 01:00:46;;;;;;;17.63;2.58;;;7.20;99.90;;;;;;4937562;28;20122;-82
2023/01/14 01:03:12;;;;;;;12.45;3.13;;;7.20;99.90;;;;;;4921671;28;20042;-82
2023/01/14 01:05:38;;;;;;;22.00;3.78;;;7.20;99.90;;;;;;4933530;28;20026;-82
2023/01/14 01:08:04;;;;;;;25.90;2.75;;;7.20;99.90;;;;;;4920537;28;20031;-82
2023/01/14 01:10:30;;;;;;;17.42;1.60;;;7.20;99.90;;;;;;4933317;28;20388;-82
2023/01/14 01:12:56;;;;;;;16.42;2.83;;;7.30;99.90;;;;;;4918072;28;20068;-82
2023/01/14 01:15:21;;;;;;;17.08;2.90;;;7.20;99.90;;;;;;4918338;28;20031;-82
2023/01/14 01:17:47;;;;;;;18.23;3.65;;;7.20;99.90;;;;;;4917983;28;20687;-82
2023/01/14 01:20:12;;;;;;;22.00;2.92;;;7.20;99.90;;;;;;4924200;28;20498;-82
2023/01/14 01:22:38;;;;;;;16.52;3.35;;;7.20;99.90;;;;;;4916353;28;20039;-82
2023/01/14 01:25:03;;;;;;;12.32;2.70;;;7.20;99.90;;;;;;4917988;28;20427;-82
2023/01/14 01:27:29;;;;;;;20.77;2.83;;;7.20;99.90;;;;;;4920118;28;20046;-82
2023/01/14 01:29:55;;;;;;;30.30;4.05;;;7.20;99.90;;;;;;4936748;28;20479;-82
2023/01/14 01:32:20;;;;;;;16.80;2.28;;;7.20;99.90;;;;;;4920515;28;20479;-82
2023/01/14 01:34:46;;;;;;;14.43;3.60;;;7.20;99.90;;;;;;4911165;28;20463;-83
2023/01/14 01:37:11;;;;;;;16.23;3.08;;;7.20;99.90;;;;;;4939043;28;20136;-82
2023/01/14 01:39:37;;;;;;;15.00;2.63;;;7.20;99.90;;;;;;4921554;28;20454;-82
2023/01/14 01:42:02;;;;;;;24.80;3.60;;;7.20;99.90;;;;;;4920517;28;20573;-82
2023/01/14 01:44:28;;;;;;;15.52;3.00;;;7.30;99.90;;;;;;4932881;28;20495;-82
2023/01/14 01:46:53;;;;;;;18.33;3.90;;;7.20;99.90;;;;;;4948260;28;20062;-82
2023/01/14 01:49:24;;;;;;;24.50;3.90;;;7.20;99.90;;;;;;4932950;28;20034;-82
2023/01/14 01:51:53;;;;;;;19.30;2.92;;;7.10;99.90;;;;;;4950109;28;20466;-82
2023/01/14 01:54:20;;;;;;;19.95;4.63;;;7.20;99.90;;;;;;4916674;28;20122;-82
2023/01/14 01:56:46;;;;;;;29.20;2.95;;;7.20;99.90;;;;;;4926535;28;20491;-82
2023/01/14 01:59:12;;;;;;;17.85;2.55;;;7.10;99.90;;;;;;4917545;28;20033;-82
2023/01/14 02:01:38;;;;;;;15.45;2.03;;;7.10;99.90;;;;;;4933649;28;20086;-82
2023/01/14 02:04:04;;;;;;;14.27;2.58;;;7.10;99.90;;;;;;4915872;28;20431;-82
2023/01/14 02:06:29;;;;;;;22.90;2.85;;;7.00;99.90;;;;;;4915123;28;20069;-82
2023/01/14 02:08:55;;;;;;;25.38;3.35;;;7.00;99.90;;;;;;4936574;28;20200;-82
2023/01/14 02:11:32;;;;;;;26.63;3.15;;;7.10;99.90;;;;;;4934090;28;20031;-82
2023/01/14 02:14:04;;;;;;;24.73;3.20;;;7.00;99.90;;;;;;4947181;28;20050;-82
2023/01/14 02:16:54;;;;;;;25.85;2.85;;;7.00;99.90;;;;;;4919099;28;20042;-82
2023/01/14 02:19:57;;;;;;;25.65;3.67;;;6.90;99.90;;;;;;4955236;28;20051;-82
2023/01/14 02:22:54;;;;;;;17.83;2.45;;;6.90;99.90;;;;;;4967174;28;20065;-82
2023/01/14 02:25:41;;;;;;;22.08;3.08;;;7.00;99.90;;;;;;4927543;28;20084;-82
2023/01/14 02:28:13;;;;;;;11.60;2.80;;;6.80;99.90;;;;;;4966658;28;20045;-82
2023/01/14 02:30:44;;;;;;;23.95;3.42;;;6.70;99.90;;;;;;4950956;28;20039;-82
2023/01/14 02:33:15;;;;;;;6.90;1.90;;;6.70;99.90;;;;;;4952389;28;20045;-82
2023/01/14 02:35:53;;;;;;;22.23;3.55;;;6.70;99.90;;;;;;4932895;28;20054;-82
2023/01/14 02:38:27;;;;;;;11.73;2.25;;;6.70;99.90;;;;;;4931350;28;20051;-83
2023/01/14 02:41:12;;;;;;;21.92;2.85;;;6.70;99.90;;;;;;4928645;28;20125;-82
2023/01/14 02:46:33;;;;;;;16.70;2.25;;;6.60;99.90;;;;;;4953980;28;20050;-82
2023/01/14 02:49:00;;;;;;;14.50;1.80;;;6.70;99.90;;;;;;4932323;28;20492;-82
2023/01/14 02:51:25;;;;;;;23.83;3.63;;;6.70;99.90;;;;;;4929137;28;20038;-82
2023/01/14 02:53:51;;;;;;;20.10;3.15;;;6.60;99.90;;;;;;4917121;28;20475;-82
2023/01/14 02:56:16;;;;;;;9.80;1.83;;;6.60;99.90;;;;;;4915446;28;20050;-82
2023/01/14 02:59:06;;;;;;;19.55;2.25;;;6.60;99.90;;;;;;4918840;28;20744;-82
2023/01/14 03:01:56;;;;;;;15.07;2.47;;;6.60;99.90;;;;;;4963495;28;20035;-82
2023/01/14 03:04:29;;;;;;;30.63;4.07;;;6.60;99.90;;;;;;4947004;28;20844;-82
2023/01/14 03:07:05;;;;;;;14.32;2.92;;;6.60;99.90;;;;;;4933687;28;20654;-81
2023/01/14 03:09:56;;;;;;;9.02;1.42;;;6.60;99.90;;;;;;4920509;28;20037;-82
2023/01/14 03:12:39;;;;;;;16.80;1.67;;;6.70;99.90;;;;;;4949128;28;20088;-82
2023/01/14 03:15:16;;;;;;;17.77;2.50;;;6.70;99.90;;;;;;4934257;28;20023;-84
2023/01/14 03:17:49;;;;;;;15.68;2.58;;;6.70;99.90;;;;;;4937422;28;20031;-84
2023/01/14 03:20:21;;;;;;;24.27;3.08;;;6.70;99.90;;;;;;4920685;28;20064;-84
2023/01/14 03:22:47;;;;;;;19.42;3.40;;;6.70;99.90;;;;;;4910973;28;20030;-82
2023/01/14 03:25:14;;;;;;;22.85;2.50;;;6.60;99.90;;;;;;4935721;28;20031;-82
2023/01/14 03:27:39;;;;;;;29.92;4.82;;;6.60;99.90;;;;;;4916031;28;20121;-82
2023/01/14 03:30:10;;;;;;;13.90;1.65;;;6.70;99.90;;;;;;4936154;28;20649;-82
2023/01/14 03:32:47;;;;;;;11.13;1.83;;;6.60;99.90;;;;;;4911824;28;20094;-82
2023/01/14 03:35:18;;;;;;;22.27;3.58;;;6.60;99.90;;;;;;4921505;28;20380;-82
2023/01/14 03:37:56;;;;;;;3.97;0.85;;;6.60;99.90;;;;;;4937102;28;20034;-82
2023/01/14 03:40:22;;;;;;;14.40;3.13;;;6.60;99.90;;;;;;4919521;28;20474;-82
2023/01/14 03:42:49;;;;;;;14.73;2.38;;;6.60;99.90;;;;;;4934785;28;20034;-82
2023/01/14 03:45:22;;;;;;;32.38;3.83;;;6.60;99.90;;;;;;4939001;28;20038;-82
2023/01/14 03:47:47;;;;;;;18.55;2.83;;;6.60;99.90;;;;;;4968103;28;20030;-82
2023/01/14 03:50:15;;;;;;;8.32;1.90;;;6.60;99.90;;;;;;4923882;28;20064;-81
2023/01/14 03:53:00;;;;;;;12.50;2.85;;;6.60;99.90;;;;;;4924400;28;20138;-82
2023/01/14 03:55:40;;;;;;;23.65;2.42;;;6.60;99.90;;;;;;4967733;28;20509;-82
2023/01/14 03:58:29;;;;;;;10.52;1.40;;;6.60;99.90;;;;;;4938400;28;20031;-81
2023/01/14 04:01:01;;;;;;;14.18;2.33;;;6.60;99.90;;;;;;4936649;28;20035;-82
2023/01/14 04:03:27;;;;;;;8.07;1.50;;;6.40;99.90;;;;;;4934518;28;20043;-82
2023/01/14 04:05:53;;;;;;;12.55;1.88;;;6.50;99.90;;;;;;4922132;28;20061;-82
2023/01/14 04:08:22;;;;;;;25.52;4.28;;;6.50;99.90;;;;;;4922252;28;20047;-81
2023/01/14 04:10:48;;;;;;;25.02;2.63;;;6.60;99.90;;;;;;4916544;28;20491;-82
2023/01/14 04:15:59;;;;;;;3.50;1.93;;;6.60;99.90;;;;;;4931709;28;20086;-81
2023/01/14 04:18:25;;;;;;;15.63;2.20;;;6.50;99.90;;;;;;4921690;28;20039;-81
2023/01/14 04:20:50;;;;;;;16.15;2.42;;;6.60;99.90;;;;;;4928706;28;20034;-81
2023/01/14 04:23:16;;;;;;;20.58;2.17;;;6.50;99.90;;;;;;4926821;28;20486;-82
2023/01/14 04:25:41;;;;;;;27.17;3.00;;;6.60;99.90;;;;;;4918151;28;20035;-81
2023/01/14 04:28:07;;;;;;;12.13;2.30;;;6.60;99.90;;;;;;4934812;28;20410;-81
2023/01/14 04:30:32;;;;;;;21.80;3.13;;;6.50;99.90;;;;;;4937169;28;20665;-82
2023/01/14 04:32:58;;;;;;;9.25;1.80;;;6.50;99.90;;;;;;4921855;28;20039;-82
2023/01/14 04:35:23;;;;;;;17.42;2.65;;;6.50;99.90;;;;;;4920000;28;20564;-82
2023/01/14 04:37:50;;;;;;;23.20;3.92;;;6.40;99.90;;;;;;4937314;28;20035;-81
2023/01/14 04:40:16;;;;;;;17.63;2.42;;;6.50;99.90;;;;;;4917507;28;20155;-81
2023/01/14 04:42:42;;;;;;;10.63;2.08;;;6.50;99.90;;;;;;4928161;28;20095;-82
2023/01/14 04:45:08;;;;;;;12.13;1.55;;;6.50;99.90;;;;;;4921016;28;20063;-81
2023/01/14 04:47:33;;;;;;;15.48;2.45;;;6.50;99.90;;;;;;4918272;28;20418;-81
2023/01/14 04:50:30;;;;;;;28.45;3.45;;;6.50;99.90;;;;;;4933759;28;20122;-81
2023/01/14 04:52:44;;;;;;;11.98;1.67;;;6.40;99.90;;;;;;4941773;28;20027;-81
2023/01/14 04:55:10;;;;;;;17.02;3.53;;;6.50;99.90;;;;;;4936976;28;20093;-81
2023/01/14 04:57:36;;;;;;;19.33;2.92;;;6.40;99.90;;;;;;4912607;28;20035;-81
2023/01/14 05:00:01;;;;;;;11.98;2.45;;;6.50;99.90;;;;;;4920080;28;20041;-81
2023/01/14 05:02:27;;;;;;;20.52;3.25;;;6.40;99.90;;;;;;4921712;28;20045;-81
2023/01/14 05:04:52;;;;;;;21.38;2.97;;;6.50;99.90;;;;;;4940180;28;20026;-81
2023/01/14 05:07:18;;;;;;;11.88;2.63;;;6.40;99.90;;;;;;4917985;28;20153;-81
2023/01/14 05:09:43;;;;;;;20.02;2.63;;;6.30;99.90;;;;;;4918103;28;20118;-81
2023/01/14 05:12:10;;;;;;;26.10;5.15;;;6.30;99.90;;;;;;4952526;28;20050;-81
2023/01/14 05:14:36;;;;;;;10.77;2.00;;;6.40;99.90;;;;;;4924795;28;20022;-81
2023/01/14 05:17:01;;;;;;;15.50;2.70;;;6.30;99.90;;;;;;4919039;28;20702;-81
2023/01/14 05:19:27;;;;;;;19.17;2.90;;;6.40;99.90;;;;;;4909916;28;20035;-81
2023/01/14 05:21:53;;;;;;;13.88;3.17;;;6.40;99.90;;;;;;4917468;28;20023;-81
2023/01/14 05:24:18;;;;;;;20.85;3.47;;;6.40;99.90;;;;;;4913248;28;20045;-81
2023/01/14 05:26:44;;;;;;;17.20;3.33;;;6.40;99.90;;;;;;4917460;28;20063;-81
2023/01/14 05:29:10;;;;;;;30.27;4.13;;;6.30;99.90;;;;;;4916408;28;20039;-81
2023/01/14 05:31:43;;;;;;;18.20;2.30;;;6.40;99.90;;;;;;4924928;28;20035;-81
2023/01/14 05:34:10;;;;;;;13.50;2.13;;;6.30;99.90;;;;;;4927939;28;20526;-81
2023/01/14 05:36:35;;;;;;;16.98;2.08;;;6.30;99.90;;;;;;4914674;28;20053;-81
2023/01/14 05:39:01;;;;;;;16.85;2.50;;;6.20;99.90;;;;;;4915973;28;20094;-83
2023/01/14 05:41:26;;;;;;;20.80;2.38;;;6.20;99.90;;;;;;4933264;28;20117;-81
2023/01/14 05:46:36;;;;;;;12.90;2.13;;;6.20;99.90;;;;;;4937794;28;20037;-81
2023/01/14 05:49:02;;;;;;;20.73;2.40;;;6.30;99.90;;;;;;4916833;28;20421;-81
2023/01/14 05:51:27;;;;;;;16.77;1.98;;;6.20;99.90;;;;;;4918071;28;20119;-82
2023/01/14 05:53:53;;;;;;;16.60;3.25;;;6.10;99.90;;;;;;4919371;28;20616;-81
2023/01/14 05:56:18;;;;;;;24.67;3.05;;;6.20;99.90;;;;;;4935482;28;20038;-81
2023/01/14 05:58:44;;;;;;;20.60;2.60;;;6.20;99.90;;;;;;4917670;28;20090;-80
2023/01/14 06:06:43;;;;;;;13.93;2.15;;;6.20;99.90;;;;;;4939628;28;20042;-80
2023/01/14 06:09:10;;;;;;;18.50;2.58;;;6.20;99.90;;;;;;4907538;29;20042;-81
2023/01/14 06:11:39;;;;;;;19.08;2.75;;;6.20;99.90;;;;;;4923223;28;20491;-81
2023/01/14 06:14:05;;;;;;;14.40;2.33;;;6.20;99.90;;;;;;4936508;28;20031;-84
2023/01/14 06:16:38;;;;;;;15.27;2.67;;;6.20;99.90;;;;;;4931388;28;20045;-85
2023/01/14 06:19:04;;;;;;;11.30;1.50;;;6.20;99.90;;;;;;4941438;28;20035;-84
2023/01/14 06:21:30;;;;;;;29.23;2.65;;;6.20;99.90;;;;;;4933242;28;20065;-84
2023/01/14 06:23:56;;;;;;;12.35;1.88;;;6.20;99.90;;;;;;4910894;28;20133;-83
2023/01/14 06:26:27;;;;;;;30.63;3.30;;;6.10;99.90;;;;;;4927665;28;20031;-84
2023/01/14 06:28:55;;;;;;;12.98;2.33;;;6.20;99.90;;;;;;4923914;28;20039;-84
2023/01/14 06:31:20;;;;;;;14.20;2.10;;;6.10;99.90;;;;;;4920084;28;20027;-83
2023/01/14 06:33:46;;;;;;;11.07;1.60;;;6.20;99.90;;;;;;4916273;28;20045;-84
2023/01/14 06:36:12;;;;;;;14.95;1.88;;;6.10;99.90;;;;;;4921640;28;20039;-84
2023/01/14 06:38:38;;;;;;;9.30;1.67;;;6.20;99.90;;;;;;4918412;28;20107;-83
2023/01/14 06:41:05;;;;;;;12.32;2.20;;;6.10;99.90;;;;;;4918174;28;20155;-85
2023/01/14 06:43:30;;;;;;;14.65;1.75;;;6.20;99.90;;;;;;4914699;28;20395;-84
2023/01/14 06:45:56;;;;;;;25.13;3.25;;;6.10;99.90;;;;;;4933634;28;20039;-84
2023/01/14 06:48:22;;;;;;;9.80;1.45;;;6.20;99.90;;;;;;4937511;28;20034;-84
2023/01/14 06:50:47;;;;;;;6.25;1.15;;;6.20;99.90;;;;;;4937836;28;20042;-84
2023/01/14 06:53:13;;;;;;;10.77;1.63;;;6.20;99.90;;;;;;4934507;28;20471;-84
2023/01/14 06:55:38;;;;;;;13.88;2.30;;;6.20;99.90;;;;;;4919079;28;20431;-83
2023/01/14 06:58:04;;;;;;;9.98;2.05;;;6.30;99.90;;;;;;4919384;28;20141;-84
2023/01/14 07:00:30;;;;;;;16.77;2.55;;;6.30;99.90;;;;;;4915997;28;20533;-84
2023/01/14 07:02:55;;;;;;;17.17;2.08;;;6.30;99.90;;;;;;4926548;28;20034;-84
2023/01/14 07:05:22;;;;;;;13.80;2.13;;;6.30;99.90;;;;;;4921946;28;20045;-84
2023/01/14 07:07:48;;;;;;;15.88;1.65;;;6.30;99.90;;;;;;4908603;28;20043;-84
2023/01/14 07:10:14;;;;;;;11.05;3.15;;;6.40;99.90;;;;;;4944361;28;20053;-84
2023/01/14 07:12:46;;;;;;;8.63;1.48;;;6.40;99.90;;;;;;4935758;28;20042;-84
2023/01/14 07:15:13;;;;;;;15.82;1.63;;;6.40;99.90;;;;;;4926578;28;20121;-84
2023/01/14 07:17:38;;;;;;;6.80;1.55;;;6.50;99.90;;;;;;4923073;28;20437;-84
2023/01/14 07:20:06;;;;;;;15.23;1.75;;;6.50;99.90;;;;;;4922067;28;20244;-80
2023/01/14 07:22:31;;;;;;;11.68;1.90;;;6.50;99.90;;;;;;4919351;28;20859;-82
2023/01/14 07:24:57;;;;;;;12.90;2.20;;;6.50;99.90;;;;;;4921063;28;20038;-82
2023/01/14 07:27:22;;;;;;;7.88;1.33;;;6.50;99.90;;;;;;4919712;28;20457;-83
2023/01/14 07:29:48;;;;;;;13.40;2.08;;;6.50;99.90;;;;;;4920279;28;20027;-82
2023/01/14 07:32:13;;;;;;;9.98;1.83;;;6.50;99.90;;;;;;4939707;28;20053;-83
2023/01/14 07:34:39;;;;;;;11.18;1.95;;;6.50;99.90;;;;;;4936973;28;20031;-83
2023/01/14 07:37:05;;;;;;;10.23;1.52;;;6.50;99.90;;;;;;4919855;28;20438;-83
2023/01/14 07:39:30;;;;;;;18.17;2.60;;;6.40;99.90;;;;;;4936508;28;20363;-83
2023/01/14 07:41:56;;;;;;;16.50;2.17;;;6.50;99.90;;;;;;4925848;28;20035;-83
2023/01/14 07:44:23;;;;;;;10.20;1.40;;;6.40;99.90;;;;;;4921436;28;20026;-83
2023/01/14 07:46:53;;;;;;;8.45;1.48;;;6.40;99.90;;;;;;4937300;28;20134;-83
2023/01/14 07:49:19;;;;;;;12.00;1.83;;;6.40;99.90;;;;;;4951916;28;20042;-84
2023/01/14 07:51:45;;;;;;;9.77;1.48;;;6.40;99.90;;;;;;4920614;28;20122;-83
2023/01/14 07:54:10;;;;;;;10.65;1.63;;;6.40;99.90;;;;;;4918968;28;20058;-83
2023/01/14 07:56:36;;;;;;;17.33;2.90;;;6.40;99.90;;;;;;4924183;28;20480;-84
2023/01/14 07:59:01;;;;;;;7.88;1.63;;;6.40;99.90;;;;;;4912857;28;20031;-84
2023/01/14 08:01:27;;;;;;;17.55;2.13;;;6.40;99.90;;;;;;4932840;28;20121;-83
2023/01/14 08:03:52;;;;;;;7.95;1.48;;;6.40;99.90;;;;;;4936220;28;20041;-85
2023/01/14 08:06:18;;;;;;;6.65;2.20;;;6.40;99.90;;;;;;4936906;28;20035;-85
2023/01/14 08:08:43;;;;;;;13.52;1.73;;;6.40;99.90;;;;;;4922713;28;20037;-86
2023/01/14 08:11:09;;;;;;;13.13;2.13;;;6.30;99.90;;;;;;4922906;28;20093;-83
2023/01/14 08:13:35;;;;;;;16.30;2.47;;;6.30;99.90;;;;;;4921836;28;20034;-84
2023/01/14 08:16:01;;;;;;;8.82;1.63;;;6.30;99.90;;;;;;4920454;28;20035;-85
2023/01/14 08:18:29;;;;;;;13.30;2.40;;;6.30;99.90;;;;;;4930549;28;20546;-85
2023/01/14 08:21:05;;;;;;;8.98;1.60;;;6.30;99.90;;;;;;4938581;28;22201;-84
2023/01/14 08:23:31;;;;;;;;;;;6.30;99.90;;;;;;4916357;28;20750;-84
2023/01/14 08:26:03;;;;;;;17.90;1.75;;;6.30;99.90;;;;;;4955537;28;19918;-85
2023/01/14 08:28:29;;;;;;;13.45;1.85;;;6.30;99.90;;;;;;4938456;28;20046;-84
2023/01/14 08:31:14;;;;;;;7.18;1.65;;;6.30;99.90;;;;;;4936197;28;20530;-84
2023/01/14 08:33:40;;;;;;;5.65;1.55;;;6.30;99.90;;;;;;4920333;28;20116;-83
2023/01/14 08:36:15;;;;;;;9.55;2.13;;;6.30;99.90;;;;;;4938257;28;20596;-83
2023/01/14 08:38:44;;;;;;;15.43;2.15;;;6.30;99.90;;;;;;4921663;28;20050;-83
2023/01/14 08:41:10;;;;;;;20.65;2.67;;;6.30;99.90;;;;;;4923157;28;20035;-85
2023/01/14 08:43:37;;;;;;;4.65;1.35;;;6.30;99.90;;;;;;4938945;28;20026;-84
2023/01/14 08:46:03;;;;;;;10.88;2.17;;;6.30;99.90;;;;;;4936821;28;20038;-83
2023/01/14 08:48:28;;;;;;;14.05;1.88;;;6.30;99.90;;;;;;4935809;28;20038;-83
2023/01/14 08:50:58;;;;;;;9.80;2.20;;;6.30;99.90;;;;;;4933405;28;20034;-83
2023/01/14 08:53:24;;;;;;;12.18;3.67;;;6.40;99.90;;;;;;4939719;28;20054;-83
2023/01/14 08:55:49;;;;;;;8.32;2.03;;;6.40;99.90;;;;;;4940293;28;20577;-83
2023/01/14 08:58:15;;;;;;;9.88;1.70;;;6.30;99.90;;;;;;4931494;28;20050;-82
2023/01/14 09:00:40;;;;;;;15.32;2.45;;;6.40;99.90;;;;;;4933059;28;20031;-82
2023/01/14 09:03:09;;;;;;;6.40;1.23;;;6.40;99.90;;;;;;4939393;28;20141;-82
2023/01/14 09:05:35;;;;;;;6.07;1.23;;;6.40;99.90;;;;;;4924264;28;20036;-82
2023/01/14 09:18:57;;;;;;;11.65;1.85;;;6.50;99.90;;;;;;4943448;28;20415;-82
2023/01/14 09:21:24;;;;;;;10.32;1.55;;;6.50;99.90;;;;;;4923212;28;20042;-82
2023/01/14 09:23:49;;;;;;;13.98;2.28;;;6.50;99.90;;;;;;4938441;28;20194;-82
2023/01/14 09:26:15;;;;;;;10.32;2.60;;;6.50;99.90;;;;;;4938451;28;20513;-82
2023/01/14 09:28:42;;;;;;;4.15;1.00;;;6.50;99.90;;;;;;4909026;28;20470;-82
2023/01/14 09:31:10;;;;;;;10.27;1.48;;;6.50;99.90;;;;;;4945819;28;20125;-82
2023/01/14 09:33:36;;;;;;;7.80;1.02;;;6.50;99.90;;;;;;4917624;28;20110;-82
2023/01/14 09:36:01;;;;;;;3.90;0.98;;;6.60;99.90;;;;;;4919715;28;20118;-82
2023/01/14 09:38:28;;;;;;;14.88;2.10;;;6.70;99.90;;;;;;4920253;28;20118;-82
2023/01/14 09:40:53;;;;;;;4.45;1.50;;;6.70;99.90;;;;;;4934133;28;20482;-82
2023/01/14 09:43:19;;;;;;;11.57;1.67;;;6.70;99.90;;;;;;4922220;28;20129;-81
2023/01/14 09:45:48;;;;;;;5.43;1.23;;;6.70;99.90;;;;;;4902143;28;20042;-82
2023/01/14 09:48:16;;;;;;;5.05;1.40;;;6.70;99.90;;;;;;4924733;28;20042;-82
2023/01/14 09:51:16;;;;;;;7.55;1.27;;;6.70;99.90;;;;;;4936427;28;20459;-82
2023/01/14 09:53:55;;;;;;;3.88;0.90;;;6.70;99.90;;;;;;4954382;28;20117;-82
2023/01/14 09:56:25;;;;;;;2.90;1.05;;;6.80;99.90;;;;;;4935022;28;20054;-82
2023/01/14 09:59:10;;;;;;;16.42;2.88;;;6.80;99.90;;;;;;4934633;28;20098;-82
2023/01/14 10:02:06;;;;;;;4.95;1.38;;;6.80;99.90;;;;;;4912588;28;20034;-82
2023/01/14 10:04:48;;;;;;;5.40;0.95;;;6.90;99.90;;;;;;4938098;28;20494;-82
2023/01/14 10:07:14;;;;;;;3.88;0.65;;;6.90;99.90;;;;;;4918296;28;20472;-82
2023/01/14 10:09:54;;;;;;;3.50;1.27;;;7.00;99.90;;;;;;4914940;28;20062;-82
2023/01/14 10:12:28;;;;;;;4.38;1.15;;;7.00;99.90;;;;;;4922898;28;20034;-82
2023/01/14 10:14:57;;;;;;;6.00;1.50;;;7.00;99.90;;;;;;4936587;28;20399;-82
2023/01/14 10:17:23;;;;;;;6.03;1.17;;;7.10;99.90;;;;;;4935172;28;20063;-82
2023/01/14 10:19:50;;;;;;;4.53;1.40;;;7.10;99.90;;;;;;4936245;28;20109;-82
2023/01/14 10:22:34;;;;;;;8.20;0.82;;;7.10;99.90;;;;;;4939973;28;20041;-82
2023/01/14 10:24:59;;;;;;;2.85;0.85;;;7.10;99.90;;;;;;4970830;28;20118;-82
2023/01/14 10:27:27;;;;;;;3.05;0.70;;;7.10;99.90;;;;;;4934632;28;20047;-83
2023/01/14 10:29:56;;;;;;;4.85;0.45;;;7.10;99.90;;;;;;4947176;28;20138;-82
2023/01/14 10:32:21;;;;;;;2.58;0.80;;;7.20;99.90;;;;;;4937471;28;20103;-82
2023/01/14 10:34:51;;;;;;;4.80;0.90;;;7.20;99.90;;;;;;4916359;28;20504;-82
2023/01/14 10:37:16;;;;;;;4.25;0.77;;;7.20;99.90;;;;;;4918303;28;20042;-82
2023/01/14 10:39:46;;;;;;;4.78;0.80;;;7.20;99.90;;;;;;4919928;28;20027;-83
2023/01/14 10:42:12;;;;;;;4.68;0.57;;;7.20;99.90;;;;;;4936073;28;20185;-82
2023/01/14 10:44:40;;;;;;;2.58;0.80;;;7.20;99.90;;;;;;4939121;28;20125;-82
2023/01/14 10:47:12;;;;;;;2.28;0.50;;;7.20;99.90;;;;;;4920350;28;20148;-82
2023/01/14 10:49:53;;;;;;;4.40;0.65;;;7.20;99.90;;;;;;4936640;28;20109;-82
2023/01/14 10:52:32;;;;;;;4.53;1.50;;;7.20;99.90;;;;;;4939446;28;20463;-83
2023/01/14 10:54:59;;;;;;;6.07;0.70;;;7.20;99.90;;;;;;4945076;28;20038;-83
2023/01/14 10:57:25;;;;;;;4.43;0.43;;;7.20;99.90;;;;;;4951810;28;20049;-82
2023/01/14 10:59:54;;;;;;;2.53;0.77;;;7.30;99.90;;;;;;4938731;28;20027;-82
2023/01/14 11:02:20;;;;;;;1.55;0.50;;;7.20;99.90;;;;;;4950114;28;20112;-82
2023/01/14 11:04:49;;;;;;;3.47;0.98;;;7.30;99.90;;;;;;4946725;28;20114;-83
2023/01/14 11:07:29;;;;;;;6.88;1.00;;;7.30;99.90;;;;;;4939862;28;20125;-88
2023/01/14 11:09:56;;;;;;;5.75;0.70;;;7.30;99.90;;;;;;4937120;28;20503;-87
2023/01/14 11:12:32;;;;;;;2.03;0.52;;;7.30;99.90;;;;;;4935076;28;20039;-86
2023/01/14 11:14:57;;;;;;;3.72;0.80;;;7.40;99.90;;;;;;4920530;28;20027;-88
2023/01/14 11:17:24;;;;;;;4.07;1.38;;;7.30;99.90;;;;;;4921035;28;20533;-88
2023/01/14 11:19:50;;;;;;;2.85;0.50;;;7.30;99.90;;;;;;4949220;28;20057;-87
2023/01/14 11:22:16;;;;;;;4.63;1.15;;;7.30;99.90;;;;;;4918854;28;20482;-87
2023/01/14 11:24:44;;;;;;;2.45;0.80;;;7.30;99.90;;;;;;4955617;28;20483;-87
2023/01/14 11:27:19;;;;;;;2.38;0.60;;;7.30;99.90;;;;;;4935771;28;20043;-88
2023/01/14 11:29:52;;;;;;;3.45;0.88;;;7.40;99.90;;;;;;4936069;28;20039;-89
2023/01/14 11:32:34;;;;;;;2.38;0.85;;;7.40;99.90;;;;;;4947537;28;20110;-88
2023/01/14 11:35:00;;;;;;;2.90;0.98;;;7.40;99.90;;;;;;4929279;28;20483;-88
2023/01/14 11:37:31;;;;;;;6.20;0.95;;;7.40;99.90;;;;;;4920075;28;20031;-88
2023/01/14 11:39:58;;;;;;;5.00;0.82;;;7.40;99.90;;;;;;4925637;28;20094;-89
2023/01/14 11:42:26;;;;;;;1.42;0.60;;;7.40;99.90;;;;;;4918773;28;20044;-89
2023/01/14 11:45:10;;;;;;;5.00;0.75;;;7.40;99.90;;;;;;4964497;28;20038;-88
2023/01/14 11:47:46;;;;;;;4.80;0.90;;;7.40;99.90;;;;;;4953573;28;20093;-87
2023/01/14 11:50:16;;;;;;;1.80;0.70;;;7.50;99.90;;;;;;4936948;28;20038;-88
2023/01/14 11:52:57;;;;;;;4.88;0.60;;;7.40;99.90;;;;;;4954020;28;20394;-88
2023/01/14 11:55:23;;;;;;;8.95;1.25;;;7.50;99.90;;;;;;4954033;28;20049;-89
2023/01/14 11:57:49;;;;;;;2.28;0.57;;;7.50;99.90;;;;;;4922638;28;20122;-88
2023/01/14 12:00:14;;;;;;;2.90;0.80;;;7.50;99.90;;;;;;4922594;28;20093;-88
2023/01/14 12:02:43;;;;;;;4.40;0.90;;;7.60;99.90;;;;;;4921382;28;20122;-87
2023/01/14 12:05:19;;;;;;;3.03;0.55;;;7.50;99.90;;;;;;4935448;28;20027;-88
2023/01/14 12:07:55;;;;;;;7.35;1.02;;;7.60;99.90;;;;;;4934245;28;20035;-88
2023/01/14 12:10:35;;;;;;;2.55;0.98;;;7.60;99.90;;;;;;4921823;28;20039;-87
2023/01/14 12:18:47;;;;;;;2.83;1.10;;;7.60;99.90;;;;;;4941330;28;20077;-87
2023/01/14 12:21:14;;;;;;;1.33;0.55;;;7.70;99.90;;;;;;4944688;28;20561;-88
2023/01/14 12:23:48;;;;;;;3.40;0.47;;;7.70;99.90;;;;;;4955270;28;20034;-86
2023/01/14 12:26:20;;;;;;;3.60;0.85;;;7.80;99.90;;;;;;4930881;28;20030;-87
2023/01/14 12:28:48;;;;;;;3.53;0.75;;;7.80;99.90;;;;;;4922555;28;20502;-87
2023/01/14 12:31:35;;;;;;;2.08;0.30;;;7.80;99.90;;;;;;4862322;28;10001057;-87
2023/01/14 12:34:33;;;;;;;0.60;0.45;;;7.80;99.90;;;;;;4579017;28;10000461;-87
2023/01/14 12:37:22;;;;;;;1.65;0.43;;;7.80;99.90;;;;;;4932936;28;20408;-87
2023/01/14 12:45:46;;;;;;;0.85;0.60;;;7.90;99.90;;;;;;4950189;28;19961;-86
2023/01/14 12:48:22;;;;;;;1.77;0.68;;;7.90;99.90;;;;;;4947364;28;20047;-87
2023/01/14 12:50:49;;;;;;;;;;;7.90;99.90;;;;;;4921541;28;20502;-87
2023/01/14 12:53:39;;;;;;;2.58;1.05;;;7.90;99.90;;;;;;4938327;28;20425;-87
2023/01/14 12:56:07;;;;;;;0.70;0.20;;;8.00;99.90;;;;;;4941773;28;20581;-87
2023/01/14 12:58:35;;;;;;;0.85;0.60;;;8.00;99.90;;;;;;4912989;28;20126;-87
2023/01/14 13:01:06;;;;;;;0.68;0.30;;;8.00;99.90;;;;;;4931035;28;20046;-87
2023/01/14 13:04:00;;;;;;;1.58;0.60;;;8.00;99.90;;;;;;4913166;28;20075;-87
2023/01/14 13:06:32;;;;;;;1.33;0.60;;;8.00;99.90;;;;;;4933032;28;20050;-87
2023/01/14 13:08:57;;;;;;;8.25;1.90;;;8.10;99.90;;;;;;4936302;28;20485;-87
2023/01/14 13:11:28;;;;;;;3.30;0.98;;;8.10;99.90;;;;;;4918057;28;20097;-88
2023/01/14 13:13:57;;;;;;;1.23;0.60;;;8.10;99.90;;;;;;4934142;28;20371;-87
2023/01/14 13:16:31;;;;;;;1.02;0.57;;;8.10;99.90;;;;;;4937802;28;20038;-87
2023/01/14 13:19:01;;;;;;;0.40;0.30;;;8.10;99.90;;;;;;4965634;28;20035;-86
2023/01/14 13:21:58;;;;;;;1.05;0.52;;;8.10;99.90;;;;;;4938802;28;20783;-87
2023/01/14 13:24:36;;;;;;;1.33;0.50;;;8.10;99.90;;;;;;4932307;28;20034;-87
2023/01/14 13:27:37;;;;;;;1.95;0.90;;;8.10;99.90;;;;;;4938448;28;20042;-87
2023/01/14 13:30:18;;;;;;;0.65;0.40;;;8.10;99.90;;;;;;4931017;28;20390;-88
2023/01/14 13:32:58;;;;;;;0.75;0.40;;;8.10;99.90;;;;;;4952426;28;20513;-88
2023/01/14 13:35:24;;;;;;;2.13;0.47;;;8.10;99.90;;;;;;4954125;28;20043;-87
2023/01/14 13:37:52;;;;;;;2.58;0.50;;;8.10;99.90;;;;;;4920811;28;20081;-87
2023/01/14 13:40:22;;;;;;;2.42;0.55;;;8.20;99.90;;;;;;4913798;28;20511;-87
2023/01/14 13:42:55;;;;;;;0.43;0.43;;;8.20;99.90;;;;;;4932923;28;20046;-86